Time;durP1;ratioP1;P1;durP2;ratioP2;P2;SDS_P1;SDS_P2;PMS_P1;PMS_P2;Temp;Humidity;BMP_temperature;BMP_pressure;BME280_temperature;BME280_humidity;BME280_pressure;Samples;Min_cycle;Max_cycle;Signal;HPM_P1;HPM_P2
2020/12/30 00:01:00;;;;;;;1.70;0.20;;;4.90;99.90;;;;;;5081633;28;20186;-71
2020/12/30 00:03:25;;;;;;;1.90;0.40;;;4.90;99.90;;;;;;5065346;28;20322;-71
2020/12/30 00:05:51;;;;;;;2.30;0.70;;;5.00;99.90;;;;;;5075970;28;20222;-71
2020/12/30 00:08:16;;;;;;;1.70;0.20;;;5.00;99.90;;;;;;5065679;28;20525;-71
2020/12/30 00:10:42;;;;;;;1.70;0.20;;;5.00;99.90;;;;;;5075139;28;20284;-71
2020/12/30 00:13:08;;;;;;;3.70;0.90;;;5.00;99.90;;;;;;5085892;28;20216;-71
2020/12/30 00:15:35;;;;;;;1.70;0.20;;;5.00;99.90;;;;;;5078441;28;20176;-71
2020/12/30 00:18:00;;;;;;;1.73;0.20;;;5.00;99.90;;;;;;5072486;28;20192;-71
2020/12/30 00:20:26;;;;;;;2.63;1.03;;;5.10;99.90;;;;;;5081201;28;20188;-71
2020/12/30 00:22:52;;;;;;;1.80;0.30;;;5.10;99.90;;;;;;5077657;28;20205;-71
2020/12/30 00:25:17;;;;;;;4.00;0.93;;;5.10;99.90;;;;;;5071976;28;20184;-71
2020/12/30 00:27:44;;;;;;;1.70;0.20;;;5.10;99.90;;;;;;5069768;28;20213;-71
2020/12/30 00:30:15;;;;;;;1.70;0.20;;;5.10;99.90;;;;;;5072340;28;20192;-71
2020/12/30 00:32:43;;;;;;;1.90;0.35;;;5.10;99.90;;;;;;5065342;28;20261;-71
2020/12/30 00:35:09;;;;;;;1.75;0.20;;;5.10;99.90;;;;;;5072029;28;20240;-71
2020/12/30 00:37:35;;;;;;;1.80;0.30;;;5.10;99.90;;;;;;5051994;28;20761;-71
2020/12/30 00:40:03;;;;;;;1.70;0.20;;;5.00;99.90;;;;;;5054769;28;20186;-71
2020/12/30 00:42:33;;;;;;;1.70;0.20;;;5.00;99.90;;;;;;5062082;28;20181;-71
2020/12/30 00:45:00;;;;;;;2.10;0.60;;;5.10;99.90;;;;;;5058886;28;20192;-71
2020/12/30 00:47:29;;;;;;;1.73;0.20;;;5.00;99.90;;;;;;5067001;28;20205;-71
2020/12/30 00:49:55;;;;;;;1.73;0.20;;;4.90;99.90;;;;;;5072944;28;20261;-71
2020/12/30 00:52:20;;;;;;;1.77;0.30;;;4.90;99.90;;;;;;5073955;28;20180;-71
2020/12/30 00:54:46;;;;;;;3.77;1.80;;;4.90;99.90;;;;;;5071315;28;20207;-72
2020/12/30 00:57:11;;;;;;;1.70;0.20;;;4.90;99.90;;;;;;5073710;28;20234;-72
2020/12/30 00:59:39;;;;;;;1.70;0.20;;;4.90;99.90;;;;;;5066928;28;20261;-71
2020/12/30 01:02:04;;;;;;;1.70;0.20;;;4.90;99.90;;;;;;5071892;28;20181;-71
2020/12/30 01:04:30;;;;;;;1.70;0.20;;;5.00;99.90;;;;;;5085021;28;20196;-70
2020/12/30 01:06:55;;;;;;;1.80;0.40;;;5.00;99.90;;;;;;5072556;28;20209;-70
2020/12/30 01:09:22;;;;;;;1.70;0.20;;;5.00;99.90;;;;;;5070502;28;20701;-70
2020/12/30 01:11:48;;;;;;;1.80;0.50;;;5.00;99.90;;;;;;5070326;28;20588;-71
2020/12/30 01:14:13;;;;;;;1.70;0.20;;;5.10;99.90;;;;;;5064396;28;20188;-70
2020/12/30 01:16:39;;;;;;;1.70;0.20;;;5.00;99.90;;;;;;5063939;28;20475;-70
2020/12/30 01:19:06;;;;;;;1.70;0.20;;;5.00;99.90;;;;;;5059944;28;20177;-70
2020/12/30 01:21:31;;;;;;;3.40;2.10;;;5.10;99.90;;;;;;5053713;28;20186;-70
2020/12/30 01:23:57;;;;;;;1.70;0.20;;;5.00;99.90;;;;;;5079661;28;20258;-71
2020/12/30 01:26:22;;;;;;;1.70;0.20;;;5.00;99.90;;;;;;5064734;28;20235;-71
2020/12/30 01:28:48;;;;;;;4.67;1.43;;;5.10;99.90;;;;;;5046974;28;20237;-70
2020/12/30 01:31:13;;;;;;;1.73;0.20;;;5.10;99.90;;;;;;5069494;28;20236;-70
2020/12/30 01:33:39;;;;;;;1.77;0.30;;;5.10;99.90;;;;;;5063526;28;20193;-70
2020/12/30 01:36:05;;;;;;;1.73;0.27;;;5.10;99.90;;;;;;5067111;28;20201;-71
2020/12/30 01:38:33;;;;;;;1.70;0.20;;;5.20;99.90;;;;;;5045719;28;20191;-71
2020/12/30 01:40:59;;;;;;;1.80;0.40;;;5.10;99.90;;;;;;5056598;28;20196;-70
2020/12/30 01:43:24;;;;;;;1.73;0.20;;;5.10;99.90;;;;;;5062071;28;20181;-71
2020/12/30 01:45:51;;;;;;;2.00;0.77;;;5.20;99.90;;;;;;5052476;28;20212;-71
2020/12/30 01:48:21;;;;;;;1.80;0.30;;;5.10;99.90;;;;;;5047894;28;20754;-71
2020/12/30 01:50:47;;;;;;;1.70;0.20;;;5.10;99.90;;;;;;5053823;28;20227;-71
2020/12/30 01:53:14;;;;;;;1.73;0.20;;;5.10;99.90;;;;;;5060111;28;20176;-71
2020/12/30 01:55:41;;;;;;;1.70;0.20;;;5.20;99.90;;;;;;5057065;28;20213;-70
2020/12/30 01:58:11;;;;;;;2.53;2.28;;;5.20;99.90;;;;;;5060705;28;20601;-70
2020/12/30 02:00:39;;;;;;;1.90;0.40;;;5.30;99.90;;;;;;5050434;28;20189;-70
2020/12/30 02:03:07;;;;;;;1.75;0.20;;;5.30;99.90;;;;;;5047415;28;20234;-71
2020/12/30 02:05:35;;;;;;;1.73;0.20;;;5.20;99.90;;;;;;5063316;28;20193;-70
2020/12/30 02:08:05;;;;;;;1.70;0.20;;;5.20;99.90;;;;;;5049893;28;20215;-70
2020/12/30 02:10:31;;;;;;;1.70;0.20;;;5.30;99.90;;;;;;5049912;28;20181;-70
2020/12/30 02:12:57;;;;;;;1.70;0.20;;;5.20;99.90;;;;;;5065526;28;20185;-70
2020/12/30 02:15:28;;;;;;;2.20;0.50;;;5.20;99.90;;;;;;5053409;28;20227;-70
2020/12/30 02:17:54;;;;;;;1.70;0.20;;;5.20;99.90;;;;;;5049627;28;20530;-70
2020/12/30 02:20:19;;;;;;;1.70;0.20;;;5.20;99.90;;;;;;5056707;28;20207;-70
2020/12/30 02:22:55;;;;;;;1.70;0.20;;;5.30;99.90;;;;;;5036301;28;20710;-70
2020/12/30 02:25:21;;;;;;;1.73;0.20;;;5.30;99.90;;;;;;5060534;28;20268;-70
2020/12/30 02:27:46;;;;;;;1.70;0.30;;;5.40;99.90;;;;;;5065584;28;20283;-70
2020/12/30 02:30:13;;;;;;;3.63;2.03;;;5.30;99.90;;;;;;5052023;28;20188;-71
2020/12/30 02:32:39;;;;;;;1.70;0.20;;;5.20;99.90;;;;;;5054582;28;20556;-70
2020/12/30 02:35:04;;;;;;;1.70;0.20;;;5.20;99.90;;;;;;5051797;28;20192;-70
2020/12/30 02:37:30;;;;;;;1.90;0.57;;;5.20;99.90;;;;;;5051729;28;20288;-70
2020/12/30 02:39:55;;;;;;;1.80;0.30;;;5.10;99.90;;;;;;5052824;28;20745;-70
2020/12/30 02:42:21;;;;;;;1.70;0.20;;;5.10;99.90;;;;;;5049931;28;20665;-70
2020/12/30 02:44:46;;;;;;;1.70;0.20;;;5.10;99.90;;;;;;5048348;28;20189;-70
2020/12/30 02:47:12;;;;;;;2.10;0.70;;;5.10;99.90;;;;;;5054784;28;20272;-70
2020/12/30 02:49:37;;;;;;;1.77;0.20;;;5.10;99.90;;;;;;5050653;28;20193;-70
2020/12/30 02:52:03;;;;;;;1.80;0.30;;;5.00;99.90;;;;;;5052075;28;20640;-70
2020/12/30 02:54:28;;;;;;;1.70;0.20;;;5.00;99.90;;;;;;5051021;28;20173;-70
2020/12/30 02:56:54;;;;;;;1.80;0.53;;;5.00;99.90;;;;;;5050415;28;20672;-70
2020/12/30 02:59:19;;;;;;;1.70;0.20;;;5.10;99.90;;;;;;5046153;28;20200;-70
2020/12/30 03:01:45;;;;;;;3.40;1.97;;;5.00;99.90;;;;;;5063342;28;20192;-70
2020/12/30 03:04:10;;;;;;;1.70;0.20;;;5.10;99.90;;;;;;5057468;28;20188;-71
2020/12/30 03:06:36;;;;;;;1.70;0.20;;;5.00;99.90;;;;;;5064006;28;20237;-71
2020/12/30 03:09:02;;;;;;;1.70;0.20;;;5.00;99.90;;;;;;5057153;28;20174;-70
2020/12/30 03:11:27;;;;;;;1.90;0.60;;;5.00;99.90;;;;;;5037666;28;20193;-71
2020/12/30 03:13:53;;;;;;;32.50;29.77;;;5.00;99.90;;;;;;5053197;28;20454;-70
2020/12/30 03:16:19;;;;;;;1.70;0.20;;;5.00;99.90;;;;;;5057093;28;20267;-70
2020/12/30 03:18:44;;;;;;;1.70;0.20;;;5.00;99.90;;;;;;5053283;28;20600;-70
2020/12/30 03:21:10;;;;;;;1.70;0.20;;;5.00;99.90;;;;;;5058591;28;20543;-70
2020/12/30 03:23:35;;;;;;;1.70;0.20;;;5.00;99.90;;;;;;5047325;28;20200;-70
2020/12/30 03:26:01;;;;;;;1.70;0.20;;;5.00;99.90;;;;;;5051704;28;20264;-70
2020/12/30 03:28:27;;;;;;;1.80;0.20;;;5.00;99.90;;;;;;5051070;28;20292;-70
2020/12/30 03:30:52;;;;;;;1.80;0.40;;;5.00;99.90;;;;;;5062211;28;20466;-70
2020/12/30 03:33:18;;;;;;;4.67;3.00;;;5.00;99.90;;;;;;5055837;28;20185;-71
2020/12/30 03:35:43;;;;;;;1.70;0.20;;;4.90;99.90;;;;;;5052564;28;20292;-70
2020/12/30 03:38:09;;;;;;;1.73;0.30;;;5.00;99.90;;;;;;5049954;28;20242;-70
2020/12/30 03:40:34;;;;;;;1.80;0.30;;;5.00;99.90;;;;;;5056399;28;20208;-70
2020/12/30 03:43:00;;;;;;;1.90;0.53;;;5.00;99.90;;;;;;5047626;28;20284;-71
2020/12/30 03:45:25;;;;;;;2.00;0.73;;;4.90;99.90;;;;;;5056511;28;20192;-70
2020/12/30 03:47:51;;;;;;;1.70;0.20;;;4.90;99.90;;;;;;5060561;28;20723;-70
2020/12/30 03:50:16;;;;;;;1.70;0.20;;;4.90;99.90;;;;;;5059076;28;20181;-71
2020/12/30 03:52:42;;;;;;;1.70;0.20;;;4.90;99.90;;;;;;5051268;28;20670;-70
2020/12/30 03:55:08;;;;;;;1.70;0.20;;;4.90;99.90;;;;;;5058839;28;20188;-70
2020/12/30 03:57:33;;;;;;;1.70;0.20;;;5.00;99.90;;;;;;5046267;28;20334;-70
2020/12/30 03:59:58;;;;;;;3.53;1.93;;;5.00;99.90;;;;;;5053990;28;20554;-70
2020/12/30 04:02:24;;;;;;;1.90;0.67;;;5.00;99.90;;;;;;5053705;28;20196;-70
2020/12/30 04:04:49;;;;;;;1.70;0.20;;;5.00;99.90;;;;;;5051441;28;20216;-70
2020/12/30 04:07:15;;;;;;;1.83;0.40;;;5.00;99.90;;;;;;5053728;28;20233;-70
2020/12/30 04:09:41;;;;;;;2.63;1.90;;;5.00;99.90;;;;;;5056884;28;20220;-70
2020/12/30 04:12:06;;;;;;;1.70;0.20;;;4.90;99.90;;;;;;5058142;28;20185;-69
2020/12/30 04:14:31;;;;;;;1.70;0.20;;;5.00;99.90;;;;;;5062339;28;20185;-70
2020/12/30 04:16:57;;;;;;;1.70;0.20;;;5.00;99.90;;;;;;5056895;28;20653;-70
2020/12/30 04:19:23;;;;;;;1.77;0.30;;;5.00;99.90;;;;;;5059643;28;20242;-69
2020/12/30 04:21:49;;;;;;;1.80;0.50;;;5.00;99.90;;;;;;5062555;28;20251;-69
2020/12/30 04:24:14;;;;;;;2.00;0.70;;;5.00;99.90;;;;;;5061218;28;20636;-70
2020/12/30 04:26:40;;;;;;;1.80;0.40;;;5.00;99.90;;;;;;5049333;28;20213;-70
2020/12/30 04:29:05;;;;;;;1.80;0.50;;;4.90;99.90;;;;;;5057299;28;20220;-70
2020/12/30 04:31:31;;;;;;;1.80;0.40;;;4.90;99.90;;;;;;5056895;28;20239;-70
2020/12/30 04:33:56;;;;;;;1.70;0.20;;;4.90;99.90;;;;;;5056803;28;20243;-70
2020/12/30 04:36:22;;;;;;;1.80;0.27;;;4.90;99.90;;;;;;5064207;28;20241;-70
2020/12/30 04:38:47;;;;;;;1.80;0.50;;;4.90;99.90;;;;;;5060424;28;20260;-70
2020/12/30 04:41:15;;;;;;;2.70;2.43;;;4.90;99.90;;;;;;5056084;28;20264;-71
2020/12/30 04:43:44;;;;;;;1.90;0.63;;;4.80;99.90;;;;;;5057106;28;20184;-70
2020/12/30 04:46:14;;;;;;;1.90;0.57;;;4.80;99.90;;;;;;5052865;28;20208;-70
2020/12/30 04:48:40;;;;;;;1.70;0.20;;;4.80;99.90;;;;;;5057948;28;20205;-70
2020/12/30 04:51:07;;;;;;;1.70;0.20;;;4.80;99.90;;;;;;5063553;28;20172;-70
2020/12/30 04:53:35;;;;;;;1.70;0.20;;;4.90;99.90;;;;;;5054533;28;20188;-70
2020/12/30 04:56:01;;;;;;;1.70;0.20;;;4.90;99.90;;;;;;5061886;28;20201;-70
2020/12/30 04:58:28;;;;;;;1.73;0.20;;;4.90;99.90;;;;;;5057731;28;20246;-70
2020/12/30 05:00:56;;;;;;;2.53;1.10;;;4.90;99.90;;;;;;5045632;28;20200;-71
2020/12/30 05:03:28;;;;;;;1.70;0.20;;;4.90;99.90;;;;;;5052749;28;20194;-70
2020/12/30 05:05:55;;;;;;;1.70;0.20;;;4.90;99.90;;;;;;5063484;28;20216;-70
2020/12/30 05:08:21;;;;;;;3.17;0.85;;;4.90;99.90;;;;;;5053136;28;20291;-71
2020/12/30 05:10:49;;;;;;;2.10;0.87;;;4.90;99.90;;;;;;5063172;28;20224;-70
2020/12/30 05:13:15;;;;;;;1.70;0.20;;;4.80;99.90;;;;;;5059028;28;21014;-70
2020/12/30 05:15:40;;;;;;;2.37;0.70;;;4.90;99.90;;;;;;5055396;28;20209;-70
2020/12/30 05:18:07;;;;;;;2.10;0.50;;;4.90;99.90;;;;;;5063940;28;20219;-71
2020/12/30 05:20:36;;;;;;;1.70;0.20;;;4.90;99.90;;;;;;5058941;28;20198;-70
2020/12/30 05:23:11;;;;;;;1.70;0.20;;;4.90;99.90;;;;;;5058391;28;20267;-70
2020/12/30 05:25:38;;;;;;;1.70;0.20;;;5.00;99.90;;;;;;5063872;28;20255;-70
2020/12/30 05:28:14;;;;;;;3.20;1.23;;;5.00;99.90;;;;;;5060949;28;20227;-71
2020/12/30 05:30:43;;;;;;;16.08;1.50;;;5.00;99.90;;;;;;5049054;28;20184;-71
2020/12/30 05:33:09;;;;;;;4.78;1.88;;;4.90;99.90;;;;;;5050144;28;20648;-71
2020/12/30 05:35:34;;;;;;;4.55;2.67;;;5.00;99.90;;;;;;5061058;28;20252;-70
2020/12/30 05:38:01;;;;;;;4.53;0.90;;;4.90;99.90;;;;;;5074327;28;20203;-71
2020/12/30 05:40:34;;;;;;;1.70;0.20;;;5.00;99.90;;;;;;5060113;28;20201;-72
2020/12/30 05:43:11;;;;;;;1.70;0.20;;;5.00;99.90;;;;;;5075503;28;20188;-72
2020/12/30 05:45:47;;;;;;;1.70;0.20;;;5.00;99.90;;;;;;5061964;28;20208;-70
2020/12/30 05:48:13;;;;;;;2.17;0.93;;;5.00;99.90;;;;;;5058676;28;20680;-70
2020/12/30 05:50:56;;;;;;;1.90;0.40;;;5.00;99.90;;;;;;5056141;28;20188;-70
2020/12/30 05:53:22;;;;;;;2.00;0.50;;;5.00;99.90;;;;;;5053592;28;20674;-70
2020/12/30 05:55:53;;;;;;;1.80;0.30;;;5.00;99.90;;;;;;5057963;28;20203;-70
2020/12/30 05:58:19;;;;;;;1.70;0.30;;;5.00;99.90;;;;;;5062764;28;20180;-70
2020/12/30 06:00:45;;;;;;;1.77;0.30;;;5.00;99.90;;;;;;5060657;28;20185;-70
2020/12/30 06:03:15;;;;;;;3.00;1.50;;;5.00;99.90;;;;;;5063143;28;20190;-70
2020/12/30 06:05:41;;;;;;;2.20;0.77;;;5.00;99.90;;;;;;5050867;28;20205;-70
2020/12/30 06:08:06;;;;;;;1.70;0.20;;;5.00;99.90;;;;;;5055507;28;20290;-70
2020/12/30 06:10:33;;;;;;;1.70;0.20;;;5.10;99.90;;;;;;5063130;28;20803;-70
2020/12/30 06:13:01;;;;;;;1.90;0.40;;;5.10;99.90;;;;;;5066494;28;20238;-71
2020/12/30 06:15:33;;;;;;;4.15;1.85;;;5.10;99.90;;;;;;5062593;28;20190;-70
2020/12/30 06:18:04;;;;;;;1.77;0.30;;;5.10;99.90;;;;;;5056886;28;20199;-70
2020/12/30 06:20:33;;;;;;;1.70;0.20;;;5.00;99.90;;;;;;5063898;28;20643;-70
2020/12/30 06:23:02;;;;;;;1.90;0.63;;;5.00;99.90;;;;;;5062322;28;20272;-70
2020/12/30 06:25:30;;;;;;;1.70;0.20;;;5.00;99.90;;;;;;5057788;28;20217;-70
2020/12/30 06:27:56;;;;;;;1.73;0.30;;;5.00;99.90;;;;;;5065026;28;20690;-70
2020/12/30 06:30:22;;;;;;;3.30;1.77;;;5.00;99.90;;;;;;5058292;28;20178;-70
2020/12/30 06:32:49;;;;;;;1.70;0.20;;;5.00;99.90;;;;;;5060032;28;20510;-70
2020/12/30 06:35:24;;;;;;;2.35;1.02;;;4.90;99.90;;;;;;5052713;28;20173;-70
2020/12/30 06:37:50;;;;;;;1.70;0.20;;;4.90;99.90;;;;;;5055175;28;20547;-70
2020/12/30 06:40:23;;;;;;;2.73;1.13;;;5.00;99.90;;;;;;5055081;28;20255;-70
2020/12/30 06:42:56;;;;;;;1.70;0.20;;;5.00;99.90;;;;;;5057751;28;20343;-70
2020/12/30 06:45:43;;;;;;;1.73;0.20;;;4.90;99.90;;;;;;5053925;28;20202;-70
2020/12/30 06:48:10;;;;;;;2.00;0.40;;;5.00;99.90;;;;;;5057549;28;20216;-70
2020/12/30 06:50:36;;;;;;;2.00;0.75;;;5.00;99.90;;;;;;5089185;22;20224;-61
2020/12/30 06:53:24;;;;;;;2.97;1.40;;;4.90;99.90;;;;;;5072562;28;20212;-61
2020/12/30 06:55:51;;;;;;;1.77;0.30;;;4.90;99.90;;;;;;5092657;28;20510;-61
2020/12/30 06:59:02;;;;;;;1.70;0.20;;;4.90;99.90;;;;;;5085514;28;20184;-61
2020/12/30 07:01:28;;;;;;;1.70;0.20;;;4.90;99.90;;;;;;5055226;28;20192;-61
2020/12/30 07:04:06;;;;;;;1.70;0.20;;;4.90;99.90;;;;;;5058824;28;20184;-61
2020/12/30 07:06:34;;;;;;;1.70;0.20;;;4.90;99.90;;;;;;5062813;28;20785;-60
2020/12/30 07:09:06;;;;;;;1.92;1.05;;;5.00;99.90;;;;;;5052074;28;20213;-61
2020/12/30 07:11:51;;;;;;;2.00;0.40;;;4.90;99.90;;;;;;5058312;28;20268;-61
2020/12/30 07:14:20;;;;;;;2.10;1.58;;;4.90;99.90;;;;;;5059699;28;20208;-61
2020/12/30 07:16:54;;;;;;;2.00;0.50;;;5.00;99.90;;;;;;5058624;28;20182;-60
2020/12/30 07:19:31;;;;;;;2.00;0.85;;;5.00;99.90;;;;;;5050454;28;20309;-60
2020/12/30 07:22:04;;;;;;;1.70;0.20;;;5.00;99.90;;;;;;5061984;28;20555;-60
2020/12/30 07:24:56;;;;;;;1.73;0.20;;;5.00;99.90;;;;;;5073408;28;20176;-60
2020/12/30 07:27:26;;;;;;;2.42;1.05;;;5.00;99.90;;;;;;5048094;28;20225;-60
2020/12/30 07:29:51;;;;;;;1.70;0.20;;;5.00;99.90;;;;;;5054149;28;20695;-60
2020/12/30 07:32:18;;;;;;;1.70;0.20;;;5.00;99.90;;;;;;5055831;28;20189;-61
2020/12/30 07:34:46;;;;;;;2.08;0.43;;;5.00;99.90;;;;;;5052100;28;20743;-60
2020/12/30 07:37:13;;;;;;;1.73;0.20;;;5.00;99.90;;;;;;5058628;28;20192;-61
2020/12/30 07:39:40;;;;;;;1.70;0.20;;;5.00;99.90;;;;;;5049310;28;20202;-59
2020/12/30 07:42:19;;;;;;;1.70;0.20;;;4.90;99.90;;;;;;5052430;28;20188;-60
2020/12/30 07:44:55;;;;;;;1.90;0.50;;;5.00;99.90;;;;;;5063834;28;20181;-59
2020/12/30 07:47:25;;;;;;;1.70;0.20;;;4.90;99.90;;;;;;5053055;28;20197;-59
2020/12/30 07:49:58;;;;;;;1.70;0.20;;;4.90;99.90;;;;;;5052372;28;20202;-59
2020/12/30 07:52:24;;;;;;;2.03;0.47;;;5.00;99.90;;;;;;5053318;28;20239;-59
2020/12/30 07:54:49;;;;;;;1.70;0.20;;;5.00;99.90;;;;;;5049403;28;20178;-59
2020/12/30 07:57:15;;;;;;;1.70;0.20;;;5.00;99.90;;;;;;5050623;28;20521;-60
2020/12/30 07:59:41;;;;;;;1.70;0.20;;;5.10;99.90;;;;;;5051773;28;20205;-60
2020/12/30 08:02:11;;;;;;;1.70;0.20;;;5.20;99.90;;;;;;5052154;28;20203;-60
2020/12/30 08:04:37;;;;;;;2.67;1.40;;;5.20;99.90;;;;;;5051509;28;20185;-59
2020/12/30 08:07:04;;;;;;;1.70;0.20;;;5.20;99.90;;;;;;5070210;28;20210;-60
2020/12/30 08:09:33;;;;;;;1.70;0.20;;;5.20;99.90;;;;;;5059515;28;20615;-59
2020/12/30 08:12:03;;;;;;;1.70;0.20;;;5.20;99.90;;;;;;5058746;28;20189;-60
2020/12/30 08:14:29;;;;;;;1.70;0.20;;;5.20;99.90;;;;;;5061452;28;20174;-60
2020/12/30 08:17:09;;;;;;;2.10;0.45;;;5.20;99.90;;;;;;5056223;28;20208;-59
2020/12/30 08:19:39;;;;;;;1.90;0.60;;;5.20;99.90;;;;;;5060045;28;20205;-59
2020/12/30 08:22:28;;;;;;;1.73;0.25;;;5.20;99.90;;;;;;5070704;28;20178;-60
2020/12/30 08:24:58;;;;;;;1.90;0.70;;;5.20;99.90;;;;;;5051386;28;20208;-60
2020/12/30 08:27:29;;;;;;;1.70;0.20;;;5.20;99.90;;;;;;5056125;28;20205;-60
2020/12/30 08:29:57;;;;;;;1.92;0.55;;;5.30;99.90;;;;;;5059274;28;20201;-60
2020/12/30 08:32:31;;;;;;;1.70;0.20;;;5.30;99.90;;;;;;5054627;28;20230;-60
2020/12/30 08:35:05;;;;;;;1.70;0.20;;;5.30;99.90;;;;;;5056915;28;20193;-60
2020/12/30 08:37:41;;;;;;;2.25;0.85;;;5.30;99.90;;;;;;5065667;28;20236;-60
2020/12/30 08:40:17;;;;;;;1.70;0.20;;;5.30;99.90;;;;;;5057189;28;20212;-60
2020/12/30 08:42:52;;;;;;;1.70;0.20;;;5.30;99.90;;;;;;5051110;28;20188;-60
2020/12/30 08:45:29;;;;;;;1.80;0.40;;;5.40;99.90;;;;;;5062250;28;20573;-60
2020/12/30 08:47:58;;;;;;;2.00;0.57;;;5.40;99.90;;;;;;5051093;28;20197;-60
2020/12/30 08:50:27;;;;;;;1.70;0.20;;;5.40;99.90;;;;;;5053384;28;20545;-58
2020/12/30 08:52:56;;;;;;;1.70;0.20;;;5.40;99.90;;;;;;5062355;28;20204;-60
2020/12/30 08:55:22;;;;;;;1.73;0.20;;;5.40;99.90;;;;;;5064424;28;20188;-64
2020/12/30 08:57:49;;;;;;;1.70;0.20;;;5.40;99.90;;;;;;5056350;28;20706;-60
2020/12/30 09:00:14;;;;;;;1.70;0.20;;;5.30;99.90;;;;;;5062424;28;20265;-61
2020/12/30 09:02:40;;;;;;;1.70;0.20;;;5.40;99.90;;;;;;5056756;28;20219;-58
2020/12/30 09:05:05;;;;;;;1.70;0.20;;;5.30;99.90;;;;;;5058354;28;20535;-60
2020/12/30 09:07:31;;;;;;;2.53;0.50;;;5.40;99.90;;;;;;5056749;28;20197;-60
2020/12/30 09:10:10;;;;;;;1.80;0.40;;;5.40;99.90;;;;;;5058423;28;20265;-60
2020/12/30 09:12:38;;;;;;;1.70;0.20;;;5.40;99.90;;;;;;5056586;28;20204;-58
2020/12/30 09:15:07;;;;;;;2.15;0.70;;;5.40;99.90;;;;;;5060024;28;20204;-60
2020/12/30 09:17:34;;;;;;;2.08;0.73;;;5.40;99.90;;;;;;5055043;28;20266;-58
2020/12/30 09:20:16;;;;;;;1.80;0.30;;;5.50;99.90;;;;;;5056432;28;20205;-58
2020/12/30 09:22:43;;;;;;;1.80;0.40;;;5.40;99.90;;;;;;5053707;28;20188;-59
2020/12/30 09:25:26;;;;;;;1.70;0.20;;;5.40;99.90;;;;;;5055980;28;20655;-59
2020/12/30 09:27:52;;;;;;;1.70;0.20;;;5.40;99.90;;;;;;5066398;28;20225;-59
2020/12/30 09:30:19;;;;;;;2.87;1.10;;;5.50;99.90;;;;;;5075903;28;20193;-58
2020/12/30 09:32:46;;;;;;;1.73;0.20;;;5.40;99.90;;;;;;5054847;28;20208;-59
2020/12/30 09:35:13;;;;;;;1.70;0.20;;;5.50;99.90;;;;;;5057411;28;20184;-58
2020/12/30 09:37:40;;;;;;;2.30;1.05;;;5.50;99.90;;;;;;5056546;28;20243;-59
2020/12/30 09:40:09;;;;;;;3.40;1.10;;;5.50;99.90;;;;;;5056279;28;20207;-58
2020/12/30 09:42:35;;;;;;;2.20;0.50;;;5.50;99.90;;;;;;5056942;28;20204;-58
2020/12/30 09:45:02;;;;;;;1.70;0.20;;;5.50;99.90;;;;;;5065925;28;20606;-59
2020/12/30 09:47:28;;;;;;;3.92;0.68;;;5.60;99.90;;;;;;5049425;28;20211;-59
2020/12/30 09:49:53;;;;;;;4.47;1.63;;;5.50;99.90;;;;;;5059117;28;20213;-59
2020/12/30 09:52:19;;;;;;;1.80;0.30;;;5.50;99.90;;;;;;5052303;28;20587;-58
2020/12/30 09:54:44;;;;;;;1.70;0.20;;;5.50;99.90;;;;;;5052527;28;20208;-58
2020/12/30 09:57:10;;;;;;;1.70;0.20;;;5.50;99.90;;;;;;5054919;28;20194;-58
2020/12/30 09:59:35;;;;;;;1.73;0.30;;;5.70;99.90;;;;;;5058795;28;20744;-58
2020/12/30 10:02:01;;;;;;;1.70;0.20;;;5.70;99.90;;;;;;5057604;28;20218;-59
2020/12/30 10:04:26;;;;;;;3.53;1.40;;;5.60;99.90;;;;;;5050015;28;20640;-58
2020/12/30 10:06:51;;;;;;;1.70;0.20;;;5.60;99.90;;;;;;5066870;28;20204;-59
2020/12/30 10:09:17;;;;;;;2.57;1.10;;;5.60;99.90;;;;;;5047699;28;20208;-58
2020/12/30 10:11:43;;;;;;;1.90;0.47;;;5.60;99.90;;;;;;5056486;28;20860;-59
2020/12/30 10:14:08;;;;;;;1.73;0.30;;;5.60;99.90;;;;;;5059671;28;20187;-59
2020/12/30 10:16:34;;;;;;;2.27;0.50;;;5.60;99.90;;;;;;5048096;28;20213;-59
2020/12/30 10:18:59;;;;;;;1.80;0.30;;;5.60;99.90;;;;;;5053211;28;20186;-59
2020/12/30 10:21:29;;;;;;;8.23;1.23;;;5.60;99.90;;;;;;5058031;28;20193;-59
2020/12/30 10:23:55;;;;;;;1.70;0.20;;;5.60;99.90;;;;;;5052735;28;20632;-59
2020/12/30 10:26:20;;;;;;;1.70;0.20;;;5.70;99.90;;;;;;5077934;28;20160;-59
2020/12/30 10:28:46;;;;;;;1.70;0.20;;;5.80;99.90;;;;;;5062986;28;20283;-60
2020/12/30 10:31:12;;;;;;;2.20;0.80;;;5.80;99.90;;;;;;5049835;28;20209;-59
2020/12/30 10:33:38;;;;;;;1.73;0.20;;;5.80;99.90;;;;;;5056651;28;20713;-59
2020/12/30 10:36:06;;;;;;;2.53;0.70;;;5.80;99.90;;;;;;5054747;28;20181;-58
2020/12/30 10:38:32;;;;;;;1.73;0.20;;;5.80;99.90;;;;;;5059176;28;20179;-59
2020/12/30 10:40:58;;;;;;;2.57;0.73;;;5.80;99.90;;;;;;5061701;28;20295;-58
2020/12/30 10:43:23;;;;;;;1.90;0.40;;;5.90;99.90;;;;;;5049604;28;20193;-58
2020/12/30 10:45:49;;;;;;;2.10;0.50;;;5.90;99.90;;;;;;5053925;28;20192;-59
2020/12/30 10:48:14;;;;;;;10.10;4.60;;;5.90;99.90;;;;;;5061872;28;20659;-59
2020/12/30 10:50:41;;;;;;;1.70;0.20;;;5.90;99.90;;;;;;5060309;28;20206;-59
2020/12/30 10:53:06;;;;;;;1.73;0.20;;;5.90;99.90;;;;;;5047902;28;20186;-58
2020/12/30 10:55:32;;;;;;;4.47;2.13;;;6.00;99.90;;;;;;5057921;28;20453;-58
2020/12/30 10:57:58;;;;;;;3.60;1.20;;;6.00;99.90;;;;;;5060451;28;20203;-60
2020/12/30 11:00:24;;;;;;;1.70;0.20;;;6.00;99.90;;;;;;5061180;28;20209;-60
2020/12/30 11:02:50;;;;;;;2.37;0.73;;;6.00;99.90;;;;;;5055099;28;20452;-58
2020/12/30 11:05:16;;;;;;;6.43;2.92;;;5.90;99.90;;;;;;5046369;28;21255;-58
2020/12/30 11:07:41;;;;;;;3.03;0.97;;;5.90;99.90;;;;;;5050083;28;20246;-58
2020/12/30 11:10:07;;;;;;;1.70;0.20;;;5.90;99.90;;;;;;5057118;28;20451;-59
2020/12/30 11:12:36;;;;;;;2.53;1.17;;;5.90;99.90;;;;;;5064114;28;20205;-59
2020/12/30 11:15:05;;;;;;;5.40;0.93;;;5.90;99.90;;;;;;5071713;28;20184;-60
2020/12/30 11:17:32;;;;;;;1.70;0.20;;;5.90;99.90;;;;;;5066399;28;20501;-59
2020/12/30 11:19:57;;;;;;;2.73;1.43;;;6.00;99.90;;;;;;5067792;28;20209;-59
2020/12/30 11:22:25;;;;;;;2.10;0.70;;;6.00;99.90;;;;;;5070421;28;20511;-59
2020/12/30 11:24:50;;;;;;;3.03;0.60;;;6.10;99.90;;;;;;5059988;28;20597;-59
2020/12/30 11:27:16;;;;;;;1.70;0.20;;;6.10;99.90;;;;;;5056579;28;20551;-59
2020/12/30 11:29:41;;;;;;;1.70;0.20;;;6.10;99.90;;;;;;5060722;28;20213;-63
2020/12/30 11:32:07;;;;;;;1.70;0.20;;;6.10;99.90;;;;;;5082445;28;20193;-59
2020/12/30 11:34:33;;;;;;;1.73;0.20;;;6.00;99.90;;;;;;5075089;28;20185;-62
2020/12/30 11:36:59;;;;;;;1.70;0.20;;;6.00;99.90;;;;;;5071964;28;20208;-59
2020/12/30 11:39:24;;;;;;;1.70;0.20;;;5.90;99.90;;;;;;5068450;28;20197;-58
2020/12/30 11:41:50;;;;;;;1.70;0.20;;;5.90;99.90;;;;;;5078189;28;20178;-60
2020/12/30 11:44:16;;;;;;;1.70;0.20;;;5.80;99.90;;;;;;5076684;28;20188;-60
2020/12/30 11:46:42;;;;;;;1.70;0.20;;;5.80;99.90;;;;;;5075181;28;20235;-61
2020/12/30 11:49:08;;;;;;;1.70;0.20;;;5.90;99.90;;;;;;5079010;28;20552;-60
2020/12/30 11:51:37;;;;;;;2.10;0.83;;;5.90;99.90;;;;;;5063271;28;20185;-59
2020/12/30 11:54:03;;;;;;;1.70;0.20;;;5.90;99.90;;;;;;5070349;28;20185;-58
2020/12/30 11:56:29;;;;;;;2.33;0.63;;;5.90;99.90;;;;;;5067061;28;20188;-59
2020/12/30 11:58:54;;;;;;;1.70;0.20;;;5.90;99.90;;;;;;5049252;28;20181;-59
2020/12/30 12:01:20;;;;;;;1.77;0.30;;;5.90;99.90;;;;;;5052149;28;20201;-59
2020/12/30 12:03:45;;;;;;;1.70;0.20;;;6.00;99.90;;;;;;5052745;28;20196;-59
2020/12/30 12:06:11;;;;;;;2.00;0.83;;;6.10;99.90;;;;;;5058687;28;20555;-61
2020/12/30 12:08:37;;;;;;;1.70;0.20;;;6.10;99.90;;;;;;5062382;28;20273;-59
2020/12/30 12:11:02;;;;;;;1.77;0.30;;;6.10;99.90;;;;;;5058531;28;20457;-59
2020/12/30 12:13:28;;;;;;;1.90;0.40;;;6.20;99.90;;;;;;5058569;28;20204;-60
2020/12/30 12:15:54;;;;;;;1.70;0.20;;;6.20;99.90;;;;;;5053416;28;20667;-60
2020/12/30 12:18:20;;;;;;;6.03;1.73;;;6.20;99.90;;;;;;5051873;28;20297;-59
2020/12/30 12:20:45;;;;;;;2.53;1.23;;;6.10;99.90;;;;;;5056427;28;20565;-58
2020/12/30 12:23:11;;;;;;;1.70;0.20;;;6.20;99.90;;;;;;5063272;28;20185;-60
2020/12/30 12:25:36;;;;;;;3.07;1.30;;;6.20;99.90;;;;;;5054713;28;20194;-59
2020/12/30 12:28:02;;;;;;;2.77;0.80;;;6.20;99.90;;;;;;5062013;28;20206;-60
2020/12/30 12:30:28;;;;;;;1.70;0.20;;;6.20;99.90;;;;;;5061431;28;20802;-60
2020/12/30 12:32:55;;;;;;;1.77;0.30;;;6.20;99.90;;;;;;5047895;28;20193;-60
2020/12/30 12:35:21;;;;;;;1.70;0.20;;;6.20;99.90;;;;;;5052660;28;20687;-59
2020/12/30 12:38:07;;;;;;;1.70;0.20;;;6.30;99.90;;;;;;5054295;28;20428;-59
2020/12/30 12:40:33;;;;;;;2.00;0.60;;;6.20;99.90;;;;;;5056002;28;20204;-59
2020/12/30 12:42:59;;;;;;;1.70;0.20;;;6.20;99.90;;;;;;5058995;28;20442;-59
2020/12/30 12:45:25;;;;;;;1.87;0.47;;;6.20;99.90;;;;;;5070129;28;20444;-58
2020/12/30 12:47:50;;;;;;;1.70;0.20;;;6.20;99.90;;;;;;5055614;28;20683;-59
2020/12/30 12:50:16;;;;;;;1.80;0.30;;;6.10;99.90;;;;;;5058017;28;20209;-63
2020/12/30 12:52:41;;;;;;;2.15;0.57;;;6.10;99.90;;;;;;5067406;28;20974;-59
2020/12/30 12:55:07;;;;;;;2.43;0.60;;;6.10;99.90;;;;;;5054658;28;20185;-61
2020/12/30 12:57:32;;;;;;;3.60;2.23;;;6.00;99.90;;;;;;5057878;28;20216;-60
2020/12/30 12:59:58;;;;;;;3.23;1.13;;;6.00;99.90;;;;;;5052593;28;20691;-60